createdAt,value
2023-05-11T00:00:49.780Z,101188.30
2023-05-11T00:03:16.973Z,101190.92
2023-05-11T00:05:48.095Z,101189.72
2023-05-11T00:08:17.253Z,101187.65
2023-05-11T00:10:48.152Z,101190.10
2023-05-11T00:13:15.378Z,101186.80
2023-05-11T00:15:42.491Z,101187.67
2023-05-11T00:18:09.572Z,101188.20
2023-05-11T00:20:36.540Z,101189.08
2023-05-11T00:23:03.574Z,101189.78
2023-05-11T00:25:30.705Z,101186.14
2023-05-11T00:27:57.764Z,101189.96
2023-05-11T00:30:24.815Z,101189.63
2023-05-11T00:32:52.460Z,101188.91
2023-05-11T00:35:19.742Z,101187.19
2023-05-11T00:37:47.173Z,101187.88
2023-05-11T00:40:14.304Z,101184.40
2023-05-11T00:42:41.357Z,101186.15
2023-05-11T00:45:08.916Z,101184.41
2023-05-11T00:47:35.897Z,101187.53
2023-05-11T00:50:03.024Z,101191.52
2023-05-11T00:52:30.244Z,101189.95
2023-05-11T00:54:57.274Z,101194.13
2023-05-11T00:57:24.408Z,101194.13
2023-05-11T00:59:51.408Z,101191.52
2023-05-11T01:02:18.639Z,101191.17
2023-05-11T01:04:45.781Z,101188.58
2023-05-11T01:07:17.756Z,101189.09
2023-05-11T01:09:48.350Z,101190.66
2023-05-11T01:12:30.958Z,101191.00
2023-05-11T01:15:07.153Z,101192.73
2023-05-11T01:17:46.473Z,101195.89
2023-05-11T01:20:17.895Z,101190.50
2023-05-11T01:23:04.191Z,101191.19
2023-05-11T01:25:52.269Z,101188.55
2023-05-11T01:28:47.758Z,101185.75
2023-05-11T01:31:15.586Z,101185.20
2023-05-11T01:33:53.968Z,101185.17
2023-05-11T01:36:21.385Z,101186.52
2023-05-11T01:38:48.440Z,101185.49
2023-05-11T01:41:18.998Z,101185.52
2023-05-11T01:43:49.408Z,101185.34
2023-05-11T01:46:16.632Z,101186.91
2023-05-11T01:48:46.397Z,101185.70
2023-05-11T01:51:13.636Z,101187.27
2023-05-11T01:53:41.277Z,101184.66
2023-05-11T01:56:08.364Z,101186.56
2023-05-11T01:58:36.207Z,101184.66
2023-05-11T02:01:04.367Z,101182.02
2023-05-11T02:03:31.839Z,101185.30
2023-05-11T02:05:59.093Z,101183.73
2023-05-11T02:08:26.660Z,101187.38
2023-05-11T02:10:53.771Z,101185.95
2023-05-11T02:13:20.845Z,101183.70
2023-05-11T02:15:47.960Z,101185.25
2023-05-11T02:18:15.218Z,101186.80
2023-05-11T02:20:43.735Z,101187.98
2023-05-11T02:23:10.960Z,101185.19
2023-05-11T02:25:40.066Z,101184.28
2023-05-11T02:28:08.172Z,101184.95
2023-05-11T02:30:45.496Z,101191.19
2023-05-11T02:33:15.562Z,101189.27
2023-05-11T02:35:43.716Z,101189.27
2023-05-11T02:38:11.425Z,101192.22
2023-05-11T02:40:41.086Z,101195.37
2023-05-11T02:43:11.734Z,101199.90
2023-05-11T02:45:45.252Z,101200.60
2023-05-11T02:48:21.688Z,101202.33
2023-05-11T02:50:49.677Z,101199.19
2023-05-11T02:53:16.819Z,101202.67
2023-05-11T02:55:44.080Z,101204.42
2023-05-11T02:58:11.220Z,101208.96
2023-05-11T03:00:39.852Z,101206.00
2023-05-11T03:03:07.078Z,101206.86
2023-05-11T03:05:34.302Z,101210.84
2023-05-11T03:08:01.891Z,101208.75
2023-05-11T03:10:29.755Z,101212.42
2023-05-11T03:12:57.122Z,101212.98
2023-05-11T03:15:24.627Z,101214.89
2023-05-11T03:17:52.247Z,101216.48
2023-05-11T03:20:19.881Z,101221.21
2023-05-11T03:22:47.090Z,101221.44
2023-05-11T03:25:14.672Z,101218.53
2023-05-11T03:27:41.868Z,101224.67
2023-05-11T03:30:10.725Z,101228.23
2023-05-11T03:32:41.376Z,101231.13
2023-05-11T03:35:09.187Z,101231.67
2023-05-11T03:37:37.358Z,101237.27
2023-05-11T03:40:06.339Z,101242.45
2023-05-11T03:42:37.925Z,101239.37
2023-05-11T03:45:06.496Z,101244.17
2023-05-11T03:47:33.713Z,101243.34
2023-05-11T03:50:01.303Z,101243.34
2023-05-11T03:52:28.749Z,101246.40
2023-05-11T03:54:55.857Z,101243.94
2023-05-11T03:57:25.850Z,101245.69
2023-05-11T04:07:37.868Z,101240.27
2023-05-11T04:11:50.950Z,101242.69
2023-05-11T04:14:18.176Z,101246.31
2023-05-11T04:16:45.322Z,101247.39
2023-05-11T04:19:12.460Z,101243.92
2023-05-11T04:21:39.510Z,101247.84
2023-05-11T04:24:06.726Z,101246.19
2023-05-11T04:26:33.791Z,101244.44
2023-05-11T04:29:00.869Z,101240.82
2023-05-11T04:31:27.872Z,101239.05
2023-05-11T04:33:54.901Z,101236.41
2023-05-11T04:36:22.592Z,101235.52
2023-05-11T04:38:49.820Z,101235.77
2023-05-11T04:41:16.965Z,101235.16
2023-05-11T04:43:44.772Z,101238.08
2023-05-11T04:46:12.112Z,101238.34
2023-05-11T04:48:39.420Z,101235.52
2023-05-11T04:51:06.765Z,101236.38
2023-05-11T04:53:38.748Z,101235.62
2023-05-11T04:56:05.963Z,101239.77
2023-05-11T04:58:32.964Z,101235.20
2023-05-11T05:01:00.140Z,101235.65
2023-05-11T05:03:27.342Z,101238.41
2023-05-11T05:05:55.396Z,101239.40
2023-05-11T05:08:22.459Z,101235.27
2023-05-11T05:10:49.504Z,101236.86
2023-05-11T05:13:19.549Z,101240.50
2023-05-11T05:15:46.596Z,101239.22
2023-05-11T05:18:13.683Z,101236.36
2023-05-11T05:20:41.949Z,101228.00
2023-05-11T05:23:09.481Z,101221.11
2023-05-11T05:25:36.488Z,101219.62
2023-05-11T05:28:03.760Z,101221.93
2023-05-11T05:30:31.575Z,101222.48
2023-05-11T05:32:58.675Z,101219.10
2023-05-11T05:35:25.868Z,101215.15
2023-05-11T05:37:53.379Z,101211.73
2023-05-11T05:40:21.414Z,101211.58
2023-05-11T05:42:52.041Z,101209.73
2023-05-11T05:45:21.862Z,101208.93
2023-05-11T05:47:51.919Z,101210.52
2023-05-11T05:50:20.136Z,101209.81
2023-05-11T05:52:47.429Z,101208.77
2023-05-11T05:55:14.839Z,101205.59
2023-05-11T05:57:43.113Z,101210.33
2023-05-11T06:00:11.558Z,101209.67
2023-05-11T06:02:41.792Z,101210.08
2023-05-11T06:05:13.056Z,101216.52
2023-05-11T06:07:40.119Z,101212.45
2023-05-11T06:10:07.266Z,101214.47
2023-05-11T06:12:34.514Z,101209.30
2023-05-11T06:15:01.970Z,101211.85
2023-05-11T06:17:29.941Z,101210.83
2023-05-11T06:19:57.267Z,101210.00
2023-05-11T06:22:26.452Z,101209.02
2023-05-11T06:24:53.576Z,101209.91
2023-05-11T06:27:21.863Z,101210.48
2023-05-11T06:29:49.249Z,101208.27
2023-05-11T06:32:17.173Z,101206.95
2023-05-11T06:34:44.402Z,101209.52
2023-05-11T06:37:11.456Z,101206.08
2023-05-11T06:39:38.485Z,101209.25
2023-05-11T06:42:08.341Z,101205.67
2023-05-11T06:44:35.505Z,101204.04
2023-05-11T06:47:03.342Z,101209.11
2023-05-11T06:49:30.378Z,101207.14
2023-05-11T06:51:57.428Z,101201.00
2023-05-11T06:54:24.501Z,101203.98
2023-05-11T06:56:52.007Z,101205.86
2023-05-11T06:59:19.437Z,101208.23
2023-05-11T07:01:46.684Z,101214.11
2023-05-11T07:04:13.657Z,101207.71
2023-05-11T07:06:40.999Z,101206.38
2023-05-11T07:09:08.317Z,101207.89
2023-05-11T07:11:35.459Z,101199.95
2023-05-11T07:14:02.537Z,101207.44
2023-05-11T07:16:29.646Z,101201.09
2023-05-11T07:18:56.895Z,101196.28
2023-05-11T07:21:23.970Z,101203.61
2023-05-11T07:23:51.099Z,101202.77
2023-05-11T07:26:18.189Z,101202.75
2023-05-11T07:28:45.219Z,101204.77
2023-05-11T07:31:12.323Z,101203.80
2023-05-11T07:33:39.737Z,101201.63
2023-05-11T07:36:07.557Z,101204.42
2023-05-11T07:38:34.611Z,101210.81
2023-05-11T07:41:01.694Z,101210.05
2023-05-11T07:43:28.728Z,101201.27
2023-05-11T07:45:55.723Z,101202.90
2023-05-11T07:48:22.823Z,101201.85
2023-05-11T07:50:49.939Z,101199.60
2023-05-11T07:53:17.025Z,101204.01
2023-05-11T07:55:44.013Z,101210.11
2023-05-11T07:58:11.088Z,101201.80
2023-05-11T08:00:38.160Z,101202.52
2023-05-11T08:03:05.237Z,101195.36
2023-05-11T08:05:38.010Z,101195.15
2023-05-11T08:08:05.339Z,101192.41
2023-05-11T08:10:32.397Z,101195.19
2023-05-11T08:12:59.631Z,101194.00
2023-05-11T08:15:26.652Z,101190.38
2023-05-11T08:17:53.865Z,101194.02
2023-05-11T08:20:21.107Z,101184.25
2023-05-11T08:22:48.293Z,101178.23
2023-05-11T08:25:15.445Z,101177.27
2023-05-11T08:27:42.566Z,101181.14
2023-05-11T08:30:11.676Z,101182.35
2023-05-11T08:32:54.512Z,101178.66
2023-05-11T08:35:25.377Z,101179.64
2023-05-11T08:37:52.395Z,101178.75
2023-05-11T08:40:19.680Z,101181.02
2023-05-11T08:42:46.659Z,101190.05
2023-05-11T08:45:13.768Z,101187.05
2023-05-11T08:47:40.857Z,101191.09
2023-05-11T08:50:08.184Z,101200.33
2023-05-11T08:52:35.189Z,101197.34
2023-05-11T08:55:02.205Z,101194.20
2023-05-11T08:57:29.741Z,101193.29
2023-05-11T08:59:56.886Z,101186.73
2023-05-11T09:02:23.990Z,101177.17
2023-05-11T09:04:51.232Z,101168.36
2023-05-11T09:07:18.782Z,101170.86
2023-05-11T09:09:47.090Z,101173.58
2023-05-11T09:12:14.445Z,101183.28
2023-05-11T09:14:41.500Z,101188.27
2023-05-11T09:17:09.161Z,101179.89
2023-05-11T09:19:36.716Z,101185.86
2023-05-11T09:22:05.611Z,101184.95
2023-05-11T09:24:32.873Z,101184.58
2023-05-11T09:27:09.564Z,101186.31
2023-05-11T09:29:36.709Z,101176.63
2023-05-11T09:32:04.398Z,101175.09
2023-05-11T09:34:31.532Z,101173.73
2023-05-11T09:36:58.653Z,101170.14
2023-05-11T09:39:42.220Z,101169.65
2023-05-11T09:42:21.783Z,101176.98
2023-05-11T09:44:48.892Z,101165.10
2023-05-11T09:47:21.431Z,101161.89
2023-05-11T09:49:48.612Z,101152.55
2023-05-11T09:52:16.747Z,101156.76
2023-05-11T09:54:48.061Z,101163.67
2023-05-11T09:57:25.031Z,101159.45
2023-05-11T09:59:52.456Z,101165.69
2023-05-11T10:02:27.483Z,101159.94
2023-05-11T10:04:58.839Z,101153.54
2023-05-11T10:07:35.437Z,101156.02
2023-05-11T10:10:08.990Z,101152.57
2023-05-11T10:12:38.704Z,101155.85
2023-05-11T10:15:10.358Z,101156.89
2023-05-11T10:17:37.840Z,101152.92
2023-05-11T10:20:07.180Z,101148.45
2023-05-11T10:22:34.387Z,101155.80
2023-05-11T10:25:01.703Z,101154.39
2023-05-11T10:27:28.992Z,101153.23
2023-05-11T10:29:56.026Z,101156.69
2023-05-11T10:32:23.143Z,101155.77
2023-05-11T10:34:51.043Z,101150.60
2023-05-11T10:37:18.262Z,101147.73
2023-05-11T10:39:48.577Z,101148.63
2023-05-11T10:42:48.540Z,101153.39
2023-05-11T10:45:37.753Z,101153.60
2023-05-11T10:48:25.065Z,101159.95
2023-05-11T10:51:17.654Z,101146.00
2023-05-11T10:53:53.793Z,101147.48
2023-05-11T10:56:27.274Z,101146.16
2023-05-11T10:59:21.765Z,101147.45
2023-05-11T11:01:52.427Z,101151.48
2023-05-11T11:04:20.652Z,101155.13
2023-05-11T11:06:48.133Z,101158.17
2023-05-11T11:09:16.247Z,101155.81
2023-05-11T11:11:47.367Z,101156.75
2023-05-11T11:14:15.395Z,101156.09
2023-05-11T11:17:02.778Z,101154.66
2023-05-11T11:19:30.312Z,101156.31
2023-05-11T11:22:00.962Z,101150.90
2023-05-11T11:24:46.407Z,101141.04
2023-05-11T11:27:14.430Z,101149.11
2023-05-11T11:29:41.533Z,101153.18
2023-05-11T11:32:27.050Z,101154.67
2023-05-11T11:34:54.139Z,101149.98
2023-05-11T11:37:22.528Z,101146.86
2023-05-11T11:39:50.657Z,101148.61
2023-05-11T11:42:34.252Z,101153.84
2023-05-11T11:45:30.412Z,101144.73
2023-05-11T11:48:15.080Z,101135.23
2023-05-11T11:50:44.367Z,101137.13
2023-05-11T11:53:41.462Z,101133.20
2023-05-11T11:56:15.162Z,101139.36
2023-05-11T11:58:45.437Z,101138.93
2023-05-11T12:01:17.004Z,101142.85
2023-05-11T12:03:45.157Z,101137.75
2023-05-11T12:06:12.948Z,101134.45
2023-05-11T12:08:40.961Z,101133.80
2023-05-11T12:11:08.159Z,101138.48
2023-05-11T12:13:35.637Z,101131.61
2023-05-11T12:16:13.165Z,101129.95
2023-05-11T12:18:41.004Z,101125.21
2023-05-11T12:21:14.350Z,101116.29
2023-05-11T12:23:41.394Z,101122.03
2023-05-11T12:26:09.022Z,101127.83
2023-05-11T12:28:36.328Z,101120.36
2023-05-11T12:31:03.396Z,101117.09
2023-05-11T12:33:30.434Z,101117.52
2023-05-11T12:35:57.492Z,101117.86
2023-05-11T12:38:24.461Z,101117.79
2023-05-11T12:40:53.239Z,101119.24
2023-05-11T12:43:21.816Z,101120.64
2023-05-11T12:45:49.081Z,101121.79
2023-05-11T12:48:16.198Z,101119.27
2023-05-11T12:50:46.658Z,101117.63
2023-05-11T12:53:19.843Z,101120.42
2023-05-11T12:55:57.731Z,101117.40
2023-05-11T12:58:24.796Z,101111.73
2023-05-11T13:00:56.567Z,101109.55
2023-05-11T13:03:23.863Z,101110.77
2023-05-11T13:05:51.800Z,101109.48
2023-05-11T13:08:19.467Z,101120.84
2023-05-11T13:10:48.013Z,101116.53
2023-05-11T13:13:28.374Z,101118.05
2023-05-11T13:15:55.637Z,101117.73
2023-05-11T13:18:23.341Z,101122.16
2023-05-11T13:20:50.655Z,101121.19
2023-05-11T13:23:17.663Z,101125.77
2023-05-11T13:25:49.072Z,101121.91
2023-05-11T13:28:16.922Z,101120.81
2023-05-11T13:30:44.093Z,101119.52
2023-05-11T13:33:11.130Z,101116.99
2023-05-11T13:35:41.894Z,101118.92
2023-05-11T13:38:09.902Z,101119.39
2023-05-11T13:40:37.201Z,101118.81
2023-05-11T13:43:04.312Z,101118.92
2023-05-11T13:45:31.314Z,101117.20
2023-05-11T13:47:58.354Z,101117.16
2023-05-11T13:50:26.338Z,101118.88
2023-05-11T13:52:53.967Z,101122.15
2023-05-11T13:55:21.486Z,101124.69
2023-05-11T13:57:48.838Z,101122.61
2023-05-11T14:00:16.428Z,101122.74
2023-05-11T14:02:44.387Z,101125.70
2023-05-11T14:05:12.085Z,101122.86
2023-05-11T14:07:47.886Z,101118.52
2023-05-11T14:10:16.949Z,101124.57
2023-05-11T14:12:44.755Z,101121.19
2023-05-11T14:15:12.084Z,101126.86
2023-05-11T14:17:55.239Z,101126.69
2023-05-11T14:20:22.550Z,101125.92
2023-05-11T14:22:49.596Z,101127.41
2023-05-11T14:25:17.210Z,101125.23
2023-05-11T14:27:44.460Z,101123.80
2023-05-11T14:30:11.730Z,101125.56
2023-05-11T14:32:38.828Z,101122.02
2023-05-11T14:35:06.187Z,101121.73
2023-05-11T14:37:33.663Z,101121.45
2023-05-11T14:40:01.040Z,101121.63
2023-05-11T14:42:29.921Z,101128.45
2023-05-11T14:44:57.045Z,101126.64
2023-05-11T14:47:24.272Z,101131.86
2023-05-11T14:49:51.623Z,101134.71
2023-05-11T14:52:18.612Z,101126.64
2023-05-11T14:54:45.627Z,101131.17
2023-05-11T14:57:12.607Z,101132.59
2023-05-11T14:59:55.398Z,101128.98
2023-05-11T15:02:26.433Z,101131.09
2023-05-11T15:04:53.785Z,101131.09
2023-05-11T15:07:21.485Z,101125.70
2023-05-11T15:09:48.584Z,101130.58
2023-05-11T15:12:15.576Z,101129.16
2023-05-11T15:14:42.628Z,101129.87
2023-05-11T15:17:09.607Z,101127.16
2023-05-11T15:19:36.725Z,101132.64
2023-05-11T15:22:03.713Z,101133.64
2023-05-11T15:24:30.722Z,101128.63
2023-05-11T15:26:58.292Z,101128.40
2023-05-11T15:29:25.585Z,101126.16
2023-05-11T15:31:52.668Z,101127.80
2023-05-11T15:34:19.789Z,101129.86
2023-05-11T15:36:48.821Z,101133.41
2023-05-11T15:39:16.940Z,101138.70
2023-05-11T15:41:43.982Z,101134.41
2023-05-11T15:44:11.011Z,101134.93
2023-05-11T15:46:38.666Z,101138.45
2023-05-11T15:49:06.569Z,101140.15
2023-05-11T15:51:33.562Z,101139.30
2023-05-11T15:54:00.782Z,101142.56
2023-05-11T15:56:27.856Z,101140.82
2023-05-11T15:58:54.880Z,101141.33
2023-05-11T16:01:22.329Z,101143.13
2023-05-11T16:03:49.643Z,101142.15
2023-05-11T16:06:16.793Z,101143.77
2023-05-11T16:08:45.076Z,101143.41
2023-05-11T16:11:12.089Z,101141.16
2023-05-11T16:13:39.117Z,101142.62
2023-05-11T16:16:06.740Z,101147.40
2023-05-11T16:18:33.808Z,101146.00
2023-05-11T16:21:00.863Z,101144.08
2023-05-11T16:23:28.607Z,101145.38
2023-05-11T16:25:56.764Z,101151.58
2023-05-11T16:29:26.562Z,101152.28
2023-05-11T16:31:53.783Z,101148.52
2023-05-11T16:34:21.660Z,101151.92
2023-05-11T16:36:49.581Z,101153.21
2023-05-11T16:39:16.645Z,101155.94
2023-05-11T16:41:44.066Z,101152.13
2023-05-11T16:44:11.083Z,101155.91
2023-05-11T16:46:38.150Z,101157.60
2023-05-11T16:49:05.268Z,101161.11
2023-05-11T16:51:34.153Z,101163.32
2023-05-11T16:54:01.231Z,101165.55
2023-05-11T16:56:28.439Z,101166.31
2023-05-11T16:58:55.540Z,101167.91
2023-05-11T17:01:22.578Z,101171.22
2023-05-11T17:03:49.640Z,101171.22
2023-05-11T17:06:20.957Z,101177.12
2023-05-11T17:08:48.616Z,101179.35
2023-05-11T17:11:15.640Z,101177.14
2023-05-11T17:13:42.671Z,101179.61
2023-05-11T17:16:09.757Z,101181.23
2023-05-11T17:18:36.997Z,101182.04
2023-05-11T17:21:04.157Z,101182.80
2023-05-11T17:23:31.803Z,101187.58
2023-05-11T17:25:59.574Z,101191.61
2023-05-11T17:28:27.380Z,101190.33
2023-05-11T17:30:54.507Z,101194.89
2023-05-11T17:33:23.687Z,101196.73
2023-05-11T17:35:51.655Z,101201.93
2023-05-11T17:38:18.667Z,101201.33
2023-05-11T17:40:46.266Z,101204.16
2023-05-11T17:43:13.339Z,101206.84
2023-05-11T17:45:40.426Z,101210.56
2023-05-11T17:48:07.987Z,101210.71
2023-05-11T17:50:36.863Z,101215.86
2023-05-11T17:53:04.002Z,101218.76
2023-05-11T17:55:31.468Z,101221.00
2023-05-11T17:57:58.509Z,101224.24
2023-05-11T18:00:27.695Z,101226.05
2023-05-11T18:02:54.791Z,101227.45
2023-05-11T18:05:26.058Z,101226.51
2023-05-11T18:07:58.256Z,101227.63
2023-05-11T18:10:25.371Z,101228.55
2023-05-11T18:12:52.377Z,101233.20
2023-05-11T18:15:19.484Z,101235.64
2023-05-11T18:17:46.560Z,101235.72
2023-05-11T18:20:13.769Z,101234.95
2023-05-11T18:22:40.734Z,101237.27
2023-05-11T18:25:09.015Z,101240.50
2023-05-11T18:27:36.120Z,101241.04
2023-05-11T18:30:05.951Z,101240.07
2023-05-11T18:32:32.977Z,101236.52
2023-05-11T18:35:00.055Z,101235.79
2023-05-11T18:37:27.397Z,101240.09
2023-05-11T18:39:54.990Z,101238.31
2023-05-11T18:42:22.082Z,101237.59
2023-05-11T18:44:49.079Z,101238.97
2023-05-11T18:47:16.254Z,101239.27
2023-05-11T18:49:43.416Z,101240.08
2023-05-11T18:52:12.399Z,101239.64
2023-05-11T18:54:39.439Z,101242.73
2023-05-11T18:57:08.186Z,101243.83
2023-05-11T18:59:35.188Z,101244.16
2023-05-11T19:02:02.285Z,101243.10
2023-05-11T19:04:29.456Z,101248.14
2023-05-11T19:06:56.526Z,101246.22
2023-05-11T19:09:23.967Z,101245.63
2023-05-11T19:11:51.237Z,101252.93
2023-05-11T19:14:18.351Z,101253.15
2023-05-11T19:16:46.142Z,101251.26
2023-05-11T19:19:13.574Z,101253.95
2023-05-11T19:21:42.621Z,101256.30
2023-05-11T19:24:10.143Z,101257.02
2023-05-11T19:26:38.866Z,101260.56
2023-05-11T19:29:07.476Z,101257.16
2023-05-11T19:31:34.681Z,101261.59
2023-05-11T19:34:03.048Z,101262.34
2023-05-11T19:36:30.340Z,101265.70
2023-05-11T19:38:57.360Z,101263.23
2023-05-11T19:41:25.345Z,101259.57
2023-05-11T19:43:52.709Z,101258.41
2023-05-11T19:46:19.794Z,101258.83
2023-05-11T19:48:46.901Z,101258.06
2023-05-11T19:51:13.903Z,101257.66
2023-05-11T19:53:40.934Z,101257.17
2023-05-11T19:56:08.808Z,101254.71
2023-05-11T19:58:35.832Z,101257.91
2023-05-11T20:01:03.452Z,101259.71
2023-05-11T20:03:30.519Z,101260.63
2023-05-11T20:05:58.015Z,101257.63
2023-05-11T20:08:25.133Z,101260.98
2023-05-11T20:10:52.165Z,101262.03
2023-05-11T20:13:19.213Z,101260.23
2023-05-11T20:15:46.229Z,101263.70
2023-05-11T20:18:13.325Z,101264.02
2023-05-11T20:20:40.420Z,101263.11
2023-05-11T20:23:07.410Z,101264.99
2023-05-11T20:25:34.471Z,101266.71
2023-05-11T20:28:01.616Z,101268.45
2023-05-11T20:30:28.633Z,101266.14
2023-05-11T20:35:25.683Z,101269.76
2023-05-11T20:37:53.113Z,101269.16
2023-05-11T20:40:20.878Z,101265.23
2023-05-11T20:42:48.218Z,101268.52
2023-05-11T20:45:18.408Z,101267.40
2023-05-11T20:47:45.557Z,101274.70
2023-05-11T20:50:14.676Z,101274.30
2023-05-11T20:52:42.344Z,101274.58
2023-05-11T20:55:09.516Z,101274.51
2023-05-11T20:57:36.567Z,101272.48
2023-05-11T21:00:07.755Z,101273.26
2023-05-11T21:02:35.305Z,101277.53
2023-05-11T21:05:02.812Z,101275.17
2023-05-11T21:07:30.029Z,101275.52
2023-05-11T21:09:57.104Z,101277.02
2023-05-11T21:12:24.143Z,101274.17
2023-05-11T21:14:51.169Z,101273.09
2023-05-11T21:17:18.303Z,101272.86
2023-05-11T21:19:45.560Z,101273.31
2023-05-11T21:22:12.634Z,101276.03
2023-05-11T21:24:39.642Z,101271.96
2023-05-11T21:27:06.701Z,101276.49
2023-05-11T21:29:33.766Z,101276.11
2023-05-11T21:32:00.945Z,101276.78
2023-05-11T21:34:27.922Z,101275.84
2023-05-11T21:36:54.968Z,101275.92
2023-05-11T21:39:21.992Z,101278.42
2023-05-11T21:41:49.016Z,101276.20
2023-05-11T21:44:16.270Z,101277.49
2023-05-11T21:46:43.314Z,101273.73
2023-05-11T21:49:10.384Z,101274.73
2023-05-11T21:51:37.414Z,101274.11
2023-05-11T21:54:04.677Z,101276.77
2023-05-11T21:56:31.697Z,101277.32
2023-05-11T21:58:58.689Z,101277.19
2023-05-11T22:01:25.762Z,101281.28
2023-05-11T22:03:53.120Z,101282.09
2023-05-11T22:06:20.388Z,101279.95
2023-05-11T22:08:47.364Z,101279.52
2023-05-11T22:11:14.360Z,101281.48
2023-05-11T22:13:41.492Z,101284.14
2023-05-11T22:16:08.577Z,101283.64
2023-05-11T22:18:35.748Z,101280.51
2023-05-11T22:21:03.060Z,101284.89
2023-05-11T22:23:31.330Z,101283.18
2023-05-11T22:25:58.674Z,101286.49
2023-05-11T22:28:25.719Z,101285.95
2023-05-11T22:30:52.689Z,101287.88
2023-05-11T22:33:19.709Z,101285.43
2023-05-11T22:35:46.696Z,101289.80
2023-05-11T22:38:13.798Z,101291.94
2023-05-11T22:40:41.392Z,101289.35
2023-05-11T22:43:08.462Z,101288.88
2023-05-11T22:45:35.852Z,101287.36
2023-05-11T22:48:03.007Z,101285.65
2023-05-11T22:50:30.248Z,101283.73
2023-05-11T22:52:57.351Z,101283.39
2023-05-11T22:55:25.363Z,101285.98
2023-05-11T22:57:52.509Z,101289.99
2023-05-11T23:00:20.648Z,101289.66
2023-05-11T23:02:48.096Z,101288.30
2023-05-11T23:05:15.214Z,101287.25
2023-05-11T23:07:42.445Z,101287.98
2023-05-11T23:10:10.117Z,101288.52
2023-05-11T23:12:37.187Z,101288.88
2023-05-11T23:15:05.133Z,101288.00
2023-05-11T23:17:32.201Z,101288.71
2023-05-11T23:19:59.186Z,101290.98
2023-05-11T23:22:26.275Z,101287.49
2023-05-11T23:24:55.852Z,101292.05
2023-05-11T23:27:22.862Z,101292.94
2023-05-11T23:29:50.789Z,101289.98
2023-05-11T23:32:17.771Z,101290.00
2023-05-11T23:34:45.009Z,101294.17
2023-05-11T23:37:12.123Z,101291.92
2023-05-11T23:39:39.458Z,101292.96
2023-05-11T23:42:08.860Z,101290.36
2023-05-11T23:44:36.026Z,101293.52
2023-05-11T23:47:03.043Z,101293.52
2023-05-11T23:49:30.516Z,101293.36
2023-05-11T23:51:57.545Z,101294.75
2023-05-11T23:54:24.535Z,101294.05
2023-05-11T23:56:51.601Z,101293.54
2023-05-11T23:59:18.624Z,101297.36
